sensor_id;sensor_type;location;lat;lon;timestamp;P1;durP1;ratioP1;P2;durP2;ratioP2
1344;SDS011;15375;48.540;9.268;2023-09-08T00:01:47;8.00;;;7.30;;
1344;SDS011;15375;48.540;9.268;2023-09-08T00:04:13;9.30;;;7.87;;
1344;SDS011;15375;48.540;9.268;2023-09-08T00:06:39;7.50;;;6.70;;
1344;SDS011;15375;48.540;9.268;2023-09-08T00:09:05;9.47;;;6.50;;
1344;SDS011;15375;48.540;9.268;2023-09-08T00:11:32;7.67;;;7.00;;
1344;SDS011;15375;48.540;9.268;2023-09-08T00:13:57;10.90;;;7.70;;
1344;SDS011;15375;48.540;9.268;2023-09-08T00:16:22;7.90;;;6.90;;
1344;SDS011;15375;48.540;9.268;2023-09-08T00:18:48;7.97;;;6.33;;
1344;SDS011;15375;48.540;9.268;2023-09-08T00:21:13;7.90;;;7.20;;
1344;SDS011;15375;48.540;9.268;2023-09-08T00:23:39;7.57;;;6.87;;
1344;SDS011;15375;48.540;9.268;2023-09-08T00:26:04;9.27;;;7.77;;
1344;SDS011;15375;48.540;9.268;2023-09-08T00:28:29;8.80;;;6.90;;
1344;SDS011;15375;48.540;9.268;2023-09-08T00:30:55;7.77;;;7.07;;
1344;SDS011;15375;48.540;9.268;2023-09-08T00:33:20;7.87;;;7.13;;
1344;SDS011;15375;48.540;9.268;2023-09-08T00:35:50;10.30;;;8.13;;
1344;SDS011;15375;48.540;9.268;2023-09-08T00:38:16;9.00;;;8.07;;
1344;SDS011;15375;48.540;9.268;2023-09-08T00:40:42;9.17;;;8.27;;
1344;SDS011;15375;48.540;9.268;2023-09-08T00:43:07;8.63;;;7.80;;
1344;SDS011;15375;48.540;9.268;2023-09-08T00:45:32;8.10;;;7.40;;
1344;SDS011;15375;48.540;9.268;2023-09-08T00:48:04;9.80;;;7.07;;
1344;SDS011;15375;48.540;9.268;2023-09-08T00:50:29;8.63;;;7.83;;
1344;SDS011;15375;48.540;9.268;2023-09-08T00:52:55;11.10;;;7.80;;
1344;SDS011;15375;48.540;9.268;2023-09-08T00:55:21;8.60;;;7.70;;
1344;SDS011;15375;48.540;9.268;2023-09-08T00:57:46;8.67;;;7.87;;
1344;SDS011;15375;48.540;9.268;2023-09-08T01:00:12;8.17;;;7.37;;
1344;SDS011;15375;48.540;9.268;2023-09-08T01:02:38;11.27;;;7.30;;
1344;SDS011;15375;48.540;9.268;2023-09-08T01:05:03;8.97;;;7.00;;
1344;SDS011;15375;48.540;9.268;2023-09-08T01:07:29;9.27;;;8.37;;
1344;SDS011;15375;48.540;9.268;2023-09-08T01:09:57;12.80;;;8.20;;
1344;SDS011;15375;48.540;9.268;2023-09-08T01:12:22;7.17;;;6.57;;
1344;SDS011;15375;48.540;9.268;2023-09-08T01:14:48;9.73;;;7.90;;
1344;SDS011;15375;48.540;9.268;2023-09-08T01:17:13;9.20;;;8.10;;
1344;SDS011;15375;48.540;9.268;2023-09-08T01:19:38;7.87;;;7.17;;
1344;SDS011;15375;48.540;9.268;2023-09-08T01:27:54;8.53;;;7.80;;
1344;SDS011;15375;48.540;9.268;2023-09-08T01:30:23;6.80;;;6.20;;
1344;SDS011;15375;48.540;9.268;2023-09-08T01:32:50;8.07;;;7.27;;
1344;SDS011;15375;48.540;9.268;2023-09-08T01:35:16;9.00;;;8.10;;
1344;SDS011;15375;48.540;9.268;2023-09-08T01:37:43;8.90;;;8.10;;
1344;SDS011;15375;48.540;9.268;2023-09-08T01:40:10;9.10;;;8.20;;
1344;SDS011;15375;48.540;9.268;2023-09-08T01:42:36;9.70;;;8.70;;
1344;SDS011;15375;48.540;9.268;2023-09-08T01:45:03;8.90;;;7.60;;
1344;SDS011;15375;48.540;9.268;2023-09-08T01:47:29;7.30;;;6.60;;
1344;SDS011;15375;48.540;9.268;2023-09-08T01:49:54;7.30;;;6.60;;
1344;SDS011;15375;48.540;9.268;2023-09-08T01:52:20;7.83;;;7.10;;
1344;SDS011;15375;48.540;9.268;2023-09-08T01:54:45;7.50;;;6.80;;
1344;SDS011;15375;48.540;9.268;2023-09-08T01:57:11;9.37;;;8.10;;
1344;SDS011;15375;48.540;9.268;2023-09-08T01:59:36;8.20;;;7.50;;
1344;SDS011;15375;48.540;9.268;2023-09-08T02:02:05;9.57;;;7.73;;
1344;SDS011;15375;48.540;9.268;2023-09-08T02:04:30;7.50;;;6.90;;
1344;SDS011;15375;48.540;9.268;2023-09-08T02:06:55;11.00;;;6.70;;
1344;SDS011;15375;48.540;9.268;2023-09-08T02:09:21;8.83;;;7.90;;
1344;SDS011;15375;48.540;9.268;2023-09-08T02:11:50;7.93;;;7.23;;
1344;SDS011;15375;48.540;9.268;2023-09-08T02:14:15;8.33;;;7.53;;
1344;SDS011;15375;48.540;9.268;2023-09-08T02:16:40;8.47;;;7.60;;
1344;SDS011;15375;48.540;9.268;2023-09-08T02:19:06;9.40;;;7.60;;
1344;SDS011;15375;48.540;9.268;2023-09-08T02:21:31;8.40;;;7.37;;
1344;SDS011;15375;48.540;9.268;2023-09-08T02:23:56;9.73;;;8.83;;
1344;SDS011;15375;48.540;9.268;2023-09-08T02:26:22;8.07;;;7.37;;
1344;SDS011;15375;48.540;9.268;2023-09-08T02:28:47;8.27;;;7.57;;
1344;SDS011;15375;48.540;9.268;2023-09-08T02:31:12;11.00;;;7.97;;
1344;SDS011;15375;48.540;9.268;2023-09-08T02:33:38;7.93;;;7.33;;
1344;SDS011;15375;48.540;9.268;2023-09-08T02:36:04;8.47;;;7.63;;
1344;SDS011;15375;48.540;9.268;2023-09-08T02:38:30;9.27;;;8.20;;
1344;SDS011;15375;48.540;9.268;2023-09-08T02:40:56;11.93;;;8.10;;
1344;SDS011;15375;48.540;9.268;2023-09-08T02:43:22;9.43;;;8.50;;
1344;SDS011;15375;48.540;9.268;2023-09-08T02:45:49;11.00;;;8.60;;
1344;SDS011;15375;48.540;9.268;2023-09-08T02:48:15;11.50;;;9.90;;
1344;SDS011;15375;48.540;9.268;2023-09-08T02:50:41;9.40;;;8.50;;
1344;SDS011;15375;48.540;9.268;2023-09-08T02:53:07;8.40;;;7.60;;
1344;SDS011;15375;48.540;9.268;2023-09-08T02:55:32;9.63;;;8.60;;
1344;SDS011;15375;48.540;9.268;2023-09-08T02:57:57;8.67;;;7.87;;
1344;SDS011;15375;48.540;9.268;2023-09-08T03:00:24;10.60;;;8.60;;
1344;SDS011;15375;48.540;9.268;2023-09-08T03:02:49;9.67;;;8.70;;
1344;SDS011;15375;48.540;9.268;2023-09-08T03:05:15;8.43;;;7.60;;
1344;SDS011;15375;48.540;9.268;2023-09-08T03:07:40;10.47;;;8.87;;
1344;SDS011;15375;48.540;9.268;2023-09-08T03:10:08;8.93;;;8.03;;
1344;SDS011;15375;48.540;9.268;2023-09-08T03:12:34;9.27;;;7.90;;
1344;SDS011;15375;48.540;9.268;2023-09-08T03:15:00;9.33;;;8.30;;
1344;SDS011;15375;48.540;9.268;2023-09-08T03:17:26;9.23;;;7.73;;
1344;SDS011;15375;48.540;9.268;2023-09-08T03:19:52;9.80;;;7.70;;
1344;SDS011;15375;48.540;9.268;2023-09-08T03:22:18;8.70;;;7.70;;
1344;SDS011;15375;48.540;9.268;2023-09-08T03:24:43;9.63;;;8.33;;
1344;SDS011;15375;48.540;9.268;2023-09-08T03:27:08;9.20;;;8.30;;
1344;SDS011;15375;48.540;9.268;2023-09-08T03:29:34;8.83;;;7.63;;
1344;SDS011;15375;48.540;9.268;2023-09-08T03:31:59;10.50;;;8.07;;
1344;SDS011;15375;48.540;9.268;2023-09-08T03:34:24;8.83;;;8.03;;
1344;SDS011;15375;48.540;9.268;2023-09-08T03:36:51;9.07;;;8.27;;
1344;SDS011;15375;48.540;9.268;2023-09-08T03:39:18;10.20;;;9.20;;
1344;SDS011;15375;48.540;9.268;2023-09-08T03:41:44;9.17;;;8.40;;
1344;SDS011;15375;48.540;9.268;2023-09-08T03:44:10;9.80;;;8.90;;
1344;SDS011;15375;48.540;9.268;2023-09-08T03:46:35;11.60;;;9.63;;
1344;SDS011;15375;48.540;9.268;2023-09-08T03:49:01;10.10;;;9.20;;
1344;SDS011;15375;48.540;9.268;2023-09-08T03:51:27;9.90;;;9.00;;
1344;SDS011;15375;48.540;9.268;2023-09-08T03:53:53;11.27;;;10.17;;
1344;SDS011;15375;48.540;9.268;2023-09-08T03:56:19;9.50;;;8.50;;
1344;SDS011;15375;48.540;9.268;2023-09-08T03:58:45;10.50;;;8.97;;
1344;SDS011;15375;48.540;9.268;2023-09-08T04:01:11;11.30;;;10.30;;
1344;SDS011;15375;48.540;9.268;2023-09-08T04:03:36;10.53;;;9.50;;
1344;SDS011;15375;48.540;9.268;2023-09-08T04:06:02;11.07;;;9.90;;
1344;SDS011;15375;48.540;9.268;2023-09-08T04:08:27;10.50;;;9.50;;
1344;SDS011;15375;48.540;9.268;2023-09-08T04:10:52;8.93;;;8.13;;
1344;SDS011;15375;48.540;9.268;2023-09-08T04:13:17;12.47;;;10.83;;
1344;SDS011;15375;48.540;9.268;2023-09-08T04:15:43;11.30;;;10.17;;
1344;SDS011;15375;48.540;9.268;2023-09-08T04:18:08;11.80;;;9.83;;
1344;SDS011;15375;48.540;9.268;2023-09-08T04:20:34;14.67;;;11.33;;
1344;SDS011;15375;48.540;9.268;2023-09-08T04:22:59;12.07;;;10.97;;
1344;SDS011;15375;48.540;9.268;2023-09-08T04:25:24;11.80;;;10.10;;
1344;SDS011;15375;48.540;9.268;2023-09-08T04:27:50;12.67;;;11.50;;
1344;SDS011;15375;48.540;9.268;2023-09-08T04:30:15;12.07;;;10.80;;
1344;SDS011;15375;48.540;9.268;2023-09-08T04:32:41;11.50;;;10.30;;
1344;SDS011;15375;48.540;9.268;2023-09-08T04:35:06;11.43;;;10.33;;
1344;SDS011;15375;48.540;9.268;2023-09-08T04:37:32;11.53;;;9.77;;
1344;SDS011;15375;48.540;9.268;2023-09-08T04:39:57;13.70;;;10.33;;
1344;SDS011;15375;48.540;9.268;2023-09-08T04:42:23;11.87;;;10.10;;
1344;SDS011;15375;48.540;9.268;2023-09-08T04:44:48;11.83;;;9.80;;
1344;SDS011;15375;48.540;9.268;2023-09-08T04:47:14;13.97;;;9.57;;
1344;SDS011;15375;48.540;9.268;2023-09-08T04:49:39;13.80;;;10.80;;
1344;SDS011;15375;48.540;9.268;2023-09-08T04:52:05;11.70;;;10.47;;
1344;SDS011;15375;48.540;9.268;2023-09-08T04:54:30;11.33;;;10.00;;
1344;SDS011;15375;48.540;9.268;2023-09-08T04:56:56;12.13;;;10.93;;
1344;SDS011;15375;48.540;9.268;2023-09-08T04:59:22;14.00;;;11.40;;
1344;SDS011;15375;48.540;9.268;2023-09-08T05:01:48;14.50;;;10.87;;
1344;SDS011;15375;48.540;9.268;2023-09-08T05:04:14;13.80;;;10.67;;
1344;SDS011;15375;48.540;9.268;2023-09-08T05:06:39;12.20;;;10.90;;
1344;SDS011;15375;48.540;9.268;2023-09-08T05:09:04;11.63;;;10.47;;
1344;SDS011;15375;48.540;9.268;2023-09-08T05:11:30;11.20;;;9.57;;
1344;SDS011;15375;48.540;9.268;2023-09-08T05:13:55;13.90;;;11.47;;
1344;SDS011;15375;48.540;9.268;2023-09-08T05:16:22;14.13;;;11.57;;
1344;SDS011;15375;48.540;9.268;2023-09-08T05:19:02;13.30;;;11.73;;
1344;SDS011;15375;48.540;9.268;2023-09-08T05:21:30;15.07;;;12.33;;
1344;SDS011;15375;48.540;9.268;2023-09-08T05:23:57;13.93;;;12.50;;
1344;SDS011;15375;48.540;9.268;2023-09-08T05:26:22;11.83;;;10.60;;
1344;SDS011;15375;48.540;9.268;2023-09-08T05:28:48;13.43;;;11.67;;
1344;SDS011;15375;48.540;9.268;2023-09-08T05:31:13;12.90;;;11.60;;
1344;SDS011;15375;48.540;9.268;2023-09-08T05:33:38;16.10;;;11.70;;
1344;SDS011;15375;48.540;9.268;2023-09-08T05:36:04;12.63;;;11.33;;
1344;SDS011;15375;48.540;9.268;2023-09-08T05:38:30;10.90;;;9.77;;
1344;SDS011;15375;48.540;9.268;2023-09-08T05:40:55;15.43;;;11.20;;
1344;SDS011;15375;48.540;9.268;2023-09-08T05:43:21;11.10;;;9.73;;
1344;SDS011;15375;48.540;9.268;2023-09-08T05:45:47;11.07;;;9.63;;
1344;SDS011;15375;48.540;9.268;2023-09-08T05:48:13;9.60;;;8.10;;
1344;SDS011;15375;48.540;9.268;2023-09-08T05:50:38;10.10;;;8.63;;
1344;SDS011;15375;48.540;9.268;2023-09-08T05:53:03;8.87;;;8.03;;
1344;SDS011;15375;48.540;9.268;2023-09-08T05:55:32;10.50;;;8.10;;
1344;SDS011;15375;48.540;9.268;2023-09-08T05:57:57;12.87;;;7.60;;
1344;SDS011;15375;48.540;9.268;2023-09-08T06:00:23;9.93;;;7.67;;
1344;SDS011;15375;48.540;9.268;2023-09-08T06:02:48;11.73;;;7.60;;
1344;SDS011;15375;48.540;9.268;2023-09-08T06:05:13;11.30;;;8.60;;
1344;SDS011;15375;48.540;9.268;2023-09-08T06:07:39;12.27;;;8.93;;
1344;SDS011;15375;48.540;9.268;2023-09-08T06:10:04;10.27;;;9.37;;
1344;SDS011;15375;48.540;9.268;2023-09-08T06:12:30;10.37;;;8.10;;
1344;SDS011;15375;48.540;9.268;2023-09-08T06:14:55;10.40;;;9.50;;
1344;SDS011;15375;48.540;9.268;2023-09-08T06:17:21;8.83;;;8.03;;
1344;SDS011;15375;48.540;9.268;2023-09-08T06:19:46;9.53;;;8.63;;
1344;SDS011;15375;48.540;9.268;2023-09-08T06:22:11;11.17;;;10.17;;
1344;SDS011;15375;48.540;9.268;2023-09-08T06:24:37;10.47;;;9.57;;
1344;SDS011;15375;48.540;9.268;2023-09-08T06:27:02;10.73;;;9.87;;
1344;SDS011;15375;48.540;9.268;2023-09-08T06:29:28;10.57;;;9.77;;
1344;SDS011;15375;48.540;9.268;2023-09-08T06:31:53;10.80;;;9.80;;
1344;SDS011;15375;48.540;9.268;2023-09-08T06:34:18;10.37;;;9.53;;
1344;SDS011;15375;48.540;9.268;2023-09-08T06:36:47;10.53;;;9.67;;
1344;SDS011;15375;48.540;9.268;2023-09-08T06:39:12;10.67;;;9.87;;
1344;SDS011;15375;48.540;9.268;2023-09-08T06:41:38;10.77;;;9.83;;
1344;SDS011;15375;48.540;9.268;2023-09-08T06:44:03;9.13;;;8.47;;
1344;SDS011;15375;48.540;9.268;2023-09-08T06:46:29;9.90;;;8.90;;
1344;SDS011;15375;48.540;9.268;2023-09-08T06:48:54;10.50;;;9.60;;
1344;SDS011;15375;48.540;9.268;2023-09-08T06:51:20;10.63;;;9.67;;
1344;SDS011;15375;48.540;9.268;2023-09-08T06:53:50;10.83;;;8.90;;
1344;SDS011;15375;48.540;9.268;2023-09-08T06:56:20;9.63;;;8.73;;
1344;SDS011;15375;48.540;9.268;2023-09-08T06:58:45;10.53;;;9.60;;
1344;SDS011;15375;48.540;9.268;2023-09-08T07:01:11;11.30;;;10.20;;
1344;SDS011;15375;48.540;9.268;2023-09-08T07:03:36;10.50;;;9.70;;
1344;SDS011;15375;48.540;9.268;2023-09-08T07:06:02;10.23;;;9.47;;
1344;SDS011;15375;48.540;9.268;2023-09-08T07:08:27;11.70;;;10.80;;
1344;SDS011;15375;48.540;9.268;2023-09-08T07:10:53;10.10;;;9.17;;
1344;SDS011;15375;48.540;9.268;2023-09-08T07:13:19;11.13;;;9.83;;
1344;SDS011;15375;48.540;9.268;2023-09-08T07:15:44;9.57;;;8.67;;
1344;SDS011;15375;48.540;9.268;2023-09-08T07:18:10;10.33;;;9.33;;
1344;SDS011;15375;48.540;9.268;2023-09-08T07:20:35;11.47;;;8.43;;
1344;SDS011;15375;48.540;9.268;2023-09-08T07:23:00;9.80;;;8.73;;
1344;SDS011;15375;48.540;9.268;2023-09-08T07:25:26;10.87;;;8.50;;
1344;SDS011;15375;48.540;9.268;2023-09-08T07:27:51;9.53;;;8.83;;
1344;SDS011;15375;48.540;9.268;2023-09-08T07:30:18;9.83;;;8.33;;
1344;SDS011;15375;48.540;9.268;2023-09-08T07:32:44;9.43;;;8.23;;
1344;SDS011;15375;48.540;9.268;2023-09-08T07:35:09;10.10;;;9.17;;
1344;SDS011;15375;48.540;9.268;2023-09-08T07:37:39;10.47;;;9.40;;
1344;SDS011;15375;48.540;9.268;2023-09-08T07:40:05;9.87;;;8.77;;
1344;SDS011;15375;48.540;9.268;2023-09-08T07:42:31;10.20;;;9.30;;
1344;SDS011;15375;48.540;9.268;2023-09-08T07:44:59;11.30;;;8.40;;
1344;SDS011;15375;48.540;9.268;2023-09-08T07:47:24;9.50;;;8.10;;
1344;SDS011;15375;48.540;9.268;2023-09-08T07:50:15;9.70;;;8.70;;
1344;SDS011;15375;48.540;9.268;2023-09-08T07:52:42;9.80;;;8.90;;
1344;SDS011;15375;48.540;9.268;2023-09-08T07:55:07;9.53;;;8.73;;
1344;SDS011;15375;48.540;9.268;2023-09-08T07:57:32;13.07;;;9.07;;
1344;SDS011;15375;48.540;9.268;2023-09-08T07:59:58;9.20;;;8.20;;
1344;SDS011;15375;48.540;9.268;2023-09-08T08:02:23;9.53;;;8.73;;
1344;SDS011;15375;48.540;9.268;2023-09-08T08:04:48;8.87;;;8.07;;
1344;SDS011;15375;48.540;9.268;2023-09-08T08:07:14;9.63;;;8.70;;
1344;SDS011;15375;48.540;9.268;2023-09-08T08:09:39;8.33;;;7.50;;
1344;SDS011;15375;48.540;9.268;2023-09-08T08:12:04;8.77;;;7.87;;
1344;SDS011;15375;48.540;9.268;2023-09-08T08:14:30;9.07;;;8.17;;
1344;SDS011;15375;48.540;9.268;2023-09-08T08:16:55;7.87;;;7.17;;
1344;SDS011;15375;48.540;9.268;2023-09-08T08:19:21;9.40;;;8.20;;
1344;SDS011;15375;48.540;9.268;2023-09-08T08:21:46;8.80;;;7.83;;
1344;SDS011;15375;48.540;9.268;2023-09-08T08:24:12;8.57;;;7.77;;
1344;SDS011;15375;48.540;9.268;2023-09-08T08:26:37;8.43;;;7.73;;
1344;SDS011;15375;48.540;9.268;2023-09-08T08:29:02;8.77;;;8.07;;
1344;SDS011;15375;48.540;9.268;2023-09-08T08:31:28;12.90;;;8.87;;
1344;SDS011;15375;48.540;9.268;2023-09-08T08:33:53;14.10;;;10.27;;
1344;SDS011;15375;48.540;9.268;2023-09-08T08:36:19;17.73;;;10.53;;
1344;SDS011;15375;48.540;9.268;2023-09-08T08:38:44;8.90;;;8.20;;
1344;SDS011;15375;48.540;9.268;2023-09-08T08:41:10;9.90;;;8.90;;
1344;SDS011;15375;48.540;9.268;2023-09-08T08:43:35;9.83;;;8.83;;
1344;SDS011;15375;48.540;9.268;2023-09-08T08:46:02;9.80;;;8.13;;
1344;SDS011;15375;48.540;9.268;2023-09-08T08:48:29;9.27;;;8.47;;
1344;SDS011;15375;48.540;9.268;2023-09-08T08:50:55;9.20;;;8.27;;
1344;SDS011;15375;48.540;9.268;2023-09-08T08:53:22;9.03;;;8.23;;
1344;SDS011;15375;48.540;9.268;2023-09-08T08:55:49;8.70;;;7.90;;
1344;SDS011;15375;48.540;9.268;2023-09-08T08:58:18;9.93;;;8.93;;
1344;SDS011;15375;48.540;9.268;2023-09-08T09:00:49;9.13;;;8.30;;
1344;SDS011;15375;48.540;9.268;2023-09-08T09:03:17;8.33;;;7.57;;
1344;SDS011;15375;48.540;9.268;2023-09-08T09:05:43;8.53;;;7.70;;
1344;SDS011;15375;48.540;9.268;2023-09-08T09:08:09;8.90;;;8.10;;
1344;SDS011;15375;48.540;9.268;2023-09-08T09:10:36;9.00;;;8.20;;
1344;SDS011;15375;48.540;9.268;2023-09-08T09:13:02;11.17;;;8.40;;
1344;SDS011;15375;48.540;9.268;2023-09-08T09:15:28;9.77;;;9.00;;
1344;SDS011;15375;48.540;9.268;2023-09-08T09:18:04;7.93;;;7.23;;
1344;SDS011;15375;48.540;9.268;2023-09-08T09:20:30;9.87;;;8.97;;
1344;SDS011;15375;48.540;9.268;2023-09-08T09:22:56;7.80;;;7.10;;
1344;SDS011;15375;48.540;9.268;2023-09-08T09:25:28;9.93;;;8.67;;
1344;SDS011;15375;48.540;9.268;2023-09-08T09:27:56;10.00;;;8.20;;
1344;SDS011;15375;48.540;9.268;2023-09-08T09:30:23;9.53;;;8.73;;
1344;SDS011;15375;48.540;9.268;2023-09-08T09:33:10;9.40;;;8.50;;
1344;SDS011;15375;48.540;9.268;2023-09-08T09:35:45;9.20;;;8.40;;
1344;SDS011;15375;48.540;9.268;2023-09-08T09:38:11;7.60;;;7.00;;
1344;SDS011;15375;48.540;9.268;2023-09-08T09:40:37;8.77;;;7.90;;
1344;SDS011;15375;48.540;9.268;2023-09-08T09:43:04;8.97;;;8.20;;
1344;SDS011;15375;48.540;9.268;2023-09-08T09:45:31;9.03;;;8.23;;
1344;SDS011;15375;48.540;9.268;2023-09-08T09:48:02;8.23;;;7.60;;
1344;SDS011;15375;48.540;9.268;2023-09-08T09:52:59;9.60;;;8.87;;
1344;SDS011;15375;48.540;9.268;2023-09-08T09:55:26;9.03;;;8.27;;
1344;SDS011;15375;48.540;9.268;2023-09-08T09:57:54;10.97;;;9.30;;
1344;SDS011;15375;48.540;9.268;2023-09-08T10:00:22;12.00;;;8.70;;
1344;SDS011;15375;48.540;9.268;2023-09-08T10:02:47;9.60;;;8.80;;
1344;SDS011;15375;48.540;9.268;2023-09-08T10:05:17;10.77;;;9.43;;
1344;SDS011;15375;48.540;9.268;2023-09-08T10:07:43;10.83;;;9.70;;
1344;SDS011;15375;48.540;9.268;2023-09-08T10:10:12;10.00;;;9.00;;
1344;SDS011;15375;48.540;9.268;2023-09-08T10:12:37;9.93;;;9.13;;
1344;SDS011;15375;48.540;9.268;2023-09-08T10:15:03;10.37;;;9.67;;
1344;SDS011;15375;48.540;9.268;2023-09-08T10:17:32;11.00;;;8.50;;
1344;SDS011;15375;48.540;9.268;2023-09-08T10:20:00;9.63;;;8.57;;
1344;SDS011;15375;48.540;9.268;2023-09-08T10:22:33;9.60;;;8.90;;
1344;SDS011;15375;48.540;9.268;2023-09-08T10:25:02;10.80;;;9.80;;
1344;SDS011;15375;48.540;9.268;2023-09-08T10:27:30;12.27;;;8.70;;
1344;SDS011;15375;48.540;9.268;2023-09-08T10:29:57;10.07;;;9.23;;
1344;SDS011;15375;48.540;9.268;2023-09-08T10:32:26;9.90;;;8.90;;
1344;SDS011;15375;48.540;9.268;2023-09-08T10:34:53;9.03;;;8.33;;
1344;SDS011;15375;48.540;9.268;2023-09-08T10:37:20;10.50;;;9.70;;
1344;SDS011;15375;48.540;9.268;2023-09-08T10:39:46;10.77;;;9.83;;
1344;SDS011;15375;48.540;9.268;2023-09-08T10:47:18;10.17;;;9.37;;
1344;SDS011;15375;48.540;9.268;2023-09-08T10:49:49;10.53;;;9.50;;
1344;SDS011;15375;48.540;9.268;2023-09-08T10:52:18;11.67;;;10.40;;
1344;SDS011;15375;48.540;9.268;2023-09-08T10:54:53;9.70;;;8.80;;
1344;SDS011;15375;48.540;9.268;2023-09-08T10:57:23;9.30;;;8.50;;
1344;SDS011;15375;48.540;9.268;2023-09-08T11:05:07;10.10;;;9.30;;
1344;SDS011;15375;48.540;9.268;2023-09-08T11:07:35;11.03;;;9.83;;
1344;SDS011;15375;48.540;9.268;2023-09-08T11:10:03;9.50;;;8.80;;
1344;SDS011;15375;48.540;9.268;2023-09-08T11:12:30;10.70;;;8.73;;
1344;SDS011;15375;48.540;9.268;2023-09-08T11:14:56;10.90;;;9.83;;
1344;SDS011;15375;48.540;9.268;2023-09-08T11:17:25;9.93;;;9.00;;
1344;SDS011;15375;48.540;9.268;2023-09-08T11:19:51;11.07;;;10.17;;
1344;SDS011;15375;48.540;9.268;2023-09-08T11:22:17;9.73;;;8.93;;
1344;SDS011;15375;48.540;9.268;2023-09-08T11:24:43;10.20;;;9.40;;
1344;SDS011;15375;48.540;9.268;2023-09-08T11:27:09;10.53;;;9.20;;
1344;SDS011;15375;48.540;9.268;2023-09-08T11:29:36;10.10;;;9.40;;
1344;SDS011;15375;48.540;9.268;2023-09-08T11:32:02;9.30;;;8.60;;
1344;SDS011;15375;48.540;9.268;2023-09-08T11:34:31;10.53;;;9.73;;
1344;SDS011;15375;48.540;9.268;2023-09-08T11:36:56;9.20;;;8.50;;
1344;SDS011;15375;48.540;9.268;2023-09-08T11:39:25;9.43;;;8.63;;
1344;SDS011;15375;48.540;9.268;2023-09-08T11:41:51;10.37;;;9.57;;
1344;SDS011;15375;48.540;9.268;2023-09-08T11:44:17;9.80;;;9.10;;
1344;SDS011;15375;48.540;9.268;2023-09-08T11:46:43;9.03;;;8.37;;
1344;SDS011;15375;48.540;9.268;2023-09-08T11:49:09;9.80;;;8.97;;
1344;SDS011;15375;48.540;9.268;2023-09-08T11:51:34;10.57;;;9.67;;
1344;SDS011;15375;48.540;9.268;2023-09-08T11:53:59;9.10;;;8.43;;
1344;SDS011;15375;48.540;9.268;2023-09-08T11:56:25;11.70;;;8.87;;
1344;SDS011;15375;48.540;9.268;2023-09-08T11:58:51;10.27;;;9.20;;
1344;SDS011;15375;48.540;9.268;2023-09-08T12:01:18;9.97;;;8.97;;
1344;SDS011;15375;48.540;9.268;2023-09-08T12:03:54;8.27;;;7.47;;
1344;SDS011;15375;48.540;9.268;2023-09-08T12:06:20;9.77;;;8.87;;
1344;SDS011;15375;48.540;9.268;2023-09-08T12:08:49;9.83;;;9.13;;
1344;SDS011;15375;48.540;9.268;2023-09-08T12:11:14;10.20;;;9.20;;
1344;SDS011;15375;48.540;9.268;2023-09-08T12:13:40;9.83;;;9.13;;
1344;SDS011;15375;48.540;9.268;2023-09-08T12:16:20;10.20;;;8.33;;
1344;SDS011;15375;48.540;9.268;2023-09-08T12:18:49;9.67;;;8.97;;
1344;SDS011;15375;48.540;9.268;2023-09-08T12:21:15;9.90;;;9.10;;
1344;SDS011;15375;48.540;9.268;2023-09-08T12:23:48;8.33;;;7.67;;
1344;SDS011;15375;48.540;9.268;2023-09-08T12:26:14;9.43;;;8.73;;
1344;SDS011;15375;48.540;9.268;2023-09-08T12:28:41;8.80;;;8.10;;
1344;SDS011;15375;48.540;9.268;2023-09-08T12:31:08;9.30;;;8.60;;
1344;SDS011;15375;48.540;9.268;2023-09-08T12:33:34;9.20;;;8.40;;
1344;SDS011;15375;48.540;9.268;2023-09-08T12:36:09;9.30;;;8.50;;
1344;SDS011;15375;48.540;9.268;2023-09-08T12:38:51;11.53;;;8.73;;
1344;SDS011;15375;48.540;9.268;2023-09-08T12:41:20;9.00;;;8.30;;
1344;SDS011;15375;48.540;9.268;2023-09-08T12:43:46;9.10;;;8.20;;
1344;SDS011;15375;48.540;9.268;2023-09-08T12:46:11;8.63;;;7.93;;
1344;SDS011;15375;48.540;9.268;2023-09-08T12:48:37;9.33;;;8.53;;
1344;SDS011;15375;48.540;9.268;2023-09-08T12:51:03;7.47;;;6.67;;
1344;SDS011;15375;48.540;9.268;2023-09-08T12:53:33;8.63;;;7.90;;
1344;SDS011;15375;48.540;9.268;2023-09-08T12:56:00;8.47;;;7.83;;
1344;SDS011;15375;48.540;9.268;2023-09-08T12:58:25;10.53;;;7.67;;
1344;SDS011;15375;48.540;9.268;2023-09-08T13:00:55;9.50;;;7.70;;
1344;SDS011;15375;48.540;9.268;2023-09-08T13:03:21;8.67;;;7.97;;
1344;SDS011;15375;48.540;9.268;2023-09-08T13:05:46;8.83;;;8.00;;
1344;SDS011;15375;48.540;9.268;2023-09-08T13:08:12;9.23;;;8.43;;
1344;SDS011;15375;48.540;9.268;2023-09-08T13:10:40;9.00;;;8.20;;
1344;SDS011;15375;48.540;9.268;2023-09-08T13:13:09;8.23;;;7.67;;
1344;SDS011;15375;48.540;9.268;2023-09-08T13:15:34;8.70;;;7.63;;
1344;SDS011;15375;48.540;9.268;2023-09-08T13:17:59;8.90;;;8.20;;
1344;SDS011;15375;48.540;9.268;2023-09-08T13:20:25;9.30;;;8.60;;
1344;SDS011;15375;48.540;9.268;2023-09-08T13:22:50;8.63;;;8.03;;
1344;SDS011;15375;48.540;9.268;2023-09-08T13:25:15;8.67;;;8.07;;
1344;SDS011;15375;48.540;9.268;2023-09-08T13:27:41;9.07;;;8.47;;
1344;SDS011;15375;48.540;9.268;2023-09-08T13:30:09;9.00;;;8.13;;
1344;SDS011;15375;48.540;9.268;2023-09-08T13:32:36;8.07;;;7.47;;
1344;SDS011;15375;48.540;9.268;2023-09-08T13:35:02;9.70;;;8.27;;
1344;SDS011;15375;48.540;9.268;2023-09-08T13:37:28;9.00;;;8.20;;
1344;SDS011;15375;48.540;9.268;2023-09-08T13:39:54;8.60;;;7.73;;
1344;SDS011;15375;48.540;9.268;2023-09-08T13:42:19;8.40;;;7.73;;
1344;SDS011;15375;48.540;9.268;2023-09-08T13:44:44;9.07;;;8.27;;
1344;SDS011;15375;48.540;9.268;2023-09-08T13:47:10;8.90;;;8.30;;
1344;SDS011;15375;48.540;9.268;2023-09-08T13:49:35;9.03;;;8.23;;
1344;SDS011;15375;48.540;9.268;2023-09-08T13:52:00;9.33;;;8.53;;
1344;SDS011;15375;48.540;9.268;2023-09-08T13:54:27;9.00;;;7.90;;
1344;SDS011;15375;48.540;9.268;2023-09-08T13:56:59;8.33;;;7.73;;
1344;SDS011;15375;48.540;9.268;2023-09-08T13:59:26;8.30;;;7.70;;
1344;SDS011;15375;48.540;9.268;2023-09-08T14:01:53;8.70;;;8.03;;
1344;SDS011;15375;48.540;9.268;2023-09-08T14:04:19;8.67;;;8.07;;
1344;SDS011;15375;48.540;9.268;2023-09-08T14:06:45;8.57;;;7.87;;
1344;SDS011;15375;48.540;9.268;2023-09-08T14:09:10;8.20;;;7.63;;
1344;SDS011;15375;48.540;9.268;2023-09-08T14:11:36;8.07;;;7.47;;
1344;SDS011;15375;48.540;9.268;2023-09-08T14:14:01;9.40;;;8.67;;
1344;SDS011;15375;48.540;9.268;2023-09-08T14:16:28;9.03;;;8.33;;
1344;SDS011;15375;48.540;9.268;2023-09-08T14:18:54;8.27;;;7.67;;
1344;SDS011;15375;48.540;9.268;2023-09-08T14:21:19;9.33;;;8.43;;
1344;SDS011;15375;48.540;9.268;2023-09-08T14:23:45;8.27;;;7.57;;
1344;SDS011;15375;48.540;9.268;2023-09-08T14:26:11;8.40;;;7.70;;
1344;SDS011;15375;48.540;9.268;2023-09-08T14:28:36;8.93;;;8.03;;
1344;SDS011;15375;48.540;9.268;2023-09-08T14:31:02;12.20;;;8.03;;
1344;SDS011;15375;48.540;9.268;2023-09-08T14:33:27;7.40;;;6.90;;
1344;SDS011;15375;48.540;9.268;2023-09-08T14:35:52;8.77;;;7.93;;
1344;SDS011;15375;48.540;9.268;2023-09-08T14:38:19;8.10;;;7.50;;
1344;SDS011;15375;48.540;9.268;2023-09-08T14:40:44;8.20;;;7.53;;
1344;SDS011;15375;48.540;9.268;2023-09-08T14:43:18;8.07;;;7.37;;
1344;SDS011;15375;48.540;9.268;2023-09-08T14:45:43;8.43;;;7.67;;
1344;SDS011;15375;48.540;9.268;2023-09-08T14:48:09;7.63;;;6.93;;
1344;SDS011;15375;48.540;9.268;2023-09-08T14:50:34;8.00;;;7.20;;
1344;SDS011;15375;48.540;9.268;2023-09-08T14:52:59;8.30;;;7.70;;
1344;SDS011;15375;48.540;9.268;2023-09-08T14:55:32;9.00;;;8.20;;
1344;SDS011;15375;48.540;9.268;2023-09-08T14:57:58;7.83;;;7.23;;
1344;SDS011;15375;48.540;9.268;2023-09-08T15:00:23;8.93;;;8.23;;
1344;SDS011;15375;48.540;9.268;2023-09-08T15:02:49;8.23;;;7.53;;
1344;SDS011;15375;48.540;9.268;2023-09-08T15:05:14;8.57;;;7.90;;
1344;SDS011;15375;48.540;9.268;2023-09-08T15:07:40;7.83;;;7.23;;
1344;SDS011;15375;48.540;9.268;2023-09-08T15:10:05;9.17;;;8.37;;